ADDS METAR Data INFO
IDs: Format: Raw Decoded Include TAF

Data at: 1231 UTC 20 Jul 2017

METAR for:KBRO (Brownsville Intl, TX, US)
Text:KBRO 201153Z AUTO 16004KT 10SM CLR 25/25 A3007 RMK AO2 SLP180 T02500250 10267 20250 53000
Temperature: 25.0°C ( 77°F)
Dewpoint: 25.0°C ( 77°F) [RH = 100%]
Pressure (altimeter):30.07 inches Hg (1018.4 mb) [Sea level pressure: 1018.0 mb]
Winds:from the SSE (160 degrees) at 5 MPH (4 knots; 2.1 m/s)
Visibility:10 or more sm (16+ km)
Ceiling:at least 12,000 feet AGL
Clouds:sky clear below 12,000 feet AGL
QC Flag:automated observation with no human augmentation